Airfield :
LOGIN :

Register | Disclaimer

   EN    FR    IT 

 










Legend :    VFR   Marginal VFR   IFR   Intensive IFR   Very Intensive IFR
Visi :
Ceiling :
>= 8 km
>= 3000ft
5 to 8 km
1000 to 3000 ft
1500m to 5 km
500 to 1000 ft
800 to 1500m
200 to 500 ft
< 800m
< 200 ft
Symbols :   Thunderstorms  Fog  Heavy snow  Heavy precipitations  Wind > 20 kt
SIGMETs :     Misc.  Thunderstorms  Icing  Turbulence  Mountain Waves  Volcanic Ashes






- Airport Elevation : 1302 ft
- IATA code : GNB


LFLS - Grenoble / St. Geoirs

CURRENT METAR :
  • 010100Z AUTO 11005KT CAVOK M03/M06 Q1018 NOSIG

EXPIRED METARs :
  • 010030Z AUTO VRB03KT CAVOK M01/M03 Q1019 NOSIG
  • 010000Z AUTO VRB02KT CAVOK M01/M04 Q1019 NOSIG
  • 312330Z AUTO 12004KT CAVOK M01/M04 Q1019 NOSIG
  • 312300Z AUTO 13005KT CAVOK 00/M04 Q1019 NOSIG
  • 312230Z AUTO 13003KT CAVOK 00/M03 Q1019 NOSIG

TAF TAF LFLS
Valid from the 31 at 15:00 until the 01 at 15:00 UTC


311400Z 3115/0115 01010KT CAVOK
BECMG 3118/3120 VRB02KT
BECMG 0100/0103 09005KT
BECMG 0109/0111 VRB04KT
ATIS : +33 4 76 65 55 89



MET'MAP, your aeronautical weather chart ! - Copyright ORBIFLY December 2007 - Disclaimer

ORBIFLY MET'MAP TEAM :

Programming & Development : Alexandra Zaïnal
Concept & original design : Baudouin d'Aumeries
Assistance for programming : Marc-Olivier Méhu
Technical & hardware support : Manuel Goepfert

Contact : metmap@orbifly.com




SOURCES & CREDITS :

   NOAA